Fangst — LK6971 — position and weather

sailwx.info

Track history (hours):
 
Tides and Currents Weather Stations Pressure Air Temp Water Temp Dewpoint Dewpoint Depression Visibility Wind Speed Wind Dir Waves Ship Positions

Oceanographic research ship Fangst (Norway)

Detailed information on ship capabilities available from University of Delaware's Ocean Information Center and ARCUS's ALIAS (Arctic Logistics Information and Support) project.

Last reported at 2020-Jan-13 10:35 UTC. Time now 2020-Jan-19 02:19 UTC.
Position N 69°20' E 018°02'.

Length 14 m; draft 3 m.

Type: Fishing. MMSI: 257076840.

Date/timePositionNaut miles runAvg speedWind from/ knotsBaromVisibWave heightAir tempDewpointWater temp
2020-Jan-13 10:35N 69°20' E 018°02'15 5.7
2020-Jan-13 08:00N 69°07' E 017°40'10 6.7
2020-Jan-13 06:30N 69°01' E 017°18'11 7.2
2020-Jan-13 05:00N 68°52' E 016°60'4 7.6
2020-Jan-13 04:30N 68°49' E 016°54'4 7.5
2020-Jan-13 04:00N 68°46' E 016°49'98 6.3
2020-Jan-12 12:30N 67°24' E 014°27'8 7.6
2020-Jan-12 11:30N 67°18' E 014°16'7 7.2
2020-Jan-12 10:30N 67°12' E 014°06'16 7.2
2020-Jan-12 08:15N 66°60' E 013°38'36 6.4
2020-Jan-12 02:43N 66°27' E 012°60'202 6.1
2020-Jan-10 17:30N 63°31' E 009°09'4 7.7
2020-Jan-10 17:00N 63°29' E 009°01'33 7.4
2020-Jan-10 12:30N 63°12' E 007°57'8 4.0
2020-Jan-10 10:30N 63°07' E 007°44'0 0.0
2020-Jan-10 08:30N 63°07' E 007°44'0 0.0
2020-Jan-10 08:00N 63°07' E 007°44'0 0.0
2020-Jan-10 07:30N 63°07' E 007°44'0 0.0
2020-Jan-10 07:00N 63°07' E 007°44'0 0.0
2020-Jan-10 06:30N 63°07' E 007°44'0 0.0
2020-Jan-10 01:30N 63°07' E 007°44'0 0.0
2020-Jan-10 01:00N 63°07' E 007°44'0 0.0
2020-Jan-09 22:30N 63°07' E 007°44'0 0.0
2020-Jan-09 19:00N 63°07' E 007°44'9 5.7
2020-Jan-09 17:27N 63°04' E 007°25'17 5.9
2020-Jan-09 14:30N 62°53' E 006°55'13 2.6
2020-Jan-09 09:30N 62°42' E 006°39'  
Track history (hours):
 
Tides and Currents Weather Stations Pressure Air Temp Water Temp Dewpoint Dewpoint Depression Visibility Wind Speed Wind Dir Waves Ship Positions

Oceanographic research ship Fangst (Norway)

Detailed information on ship capabilities available from University of Delaware's Ocean Information Center and ARCUS's ALIAS (Arctic Logistics Information and Support) project.

Last reported at 2020-Jan-13 10:35 UTC. Time now 2020-Jan-19 02:19 UTC.
Position N 69°20' E 018°02'.

Length 14 m; draft 3 m.

Type: Fishing. MMSI: 257076840.

Date/timePositionNaut miles runAvg speedWind from/ knotsBaromVisibWave heightAir tempDewpointWater temp
2020-Jan-13 10:35N 69°20' E 018°02'15 5.7
2020-Jan-13 08:00N 69°07' E 017°40'10 6.7
2020-Jan-13 06:30N 69°01' E 017°18'11 7.2
2020-Jan-13 05:00N 68°52' E 016°60'4 7.6
2020-Jan-13 04:30N 68°49' E 016°54'4 7.5
2020-Jan-13 04:00N 68°46' E 016°49'98 6.3
2020-Jan-12 12:30N 67°24' E 014°27'8 7.6
2020-Jan-12 11:30N 67°18' E 014°16'7 7.2
2020-Jan-12 10:30N 67°12' E 014°06'16 7.2
2020-Jan-12 08:15N 66°60' E 013°38'36 6.4
2020-Jan-12 02:43N 66°27' E 012°60'202 6.1
2020-Jan-10 17:30N 63°31' E 009°09'4 7.7
2020-Jan-10 17:00N 63°29' E 009°01'33 7.4
2020-Jan-10 12:30N 63°12' E 007°57'8 4.0
2020-Jan-10 10:30N 63°07' E 007°44'0 0.0
2020-Jan-10 08:30N 63°07' E 007°44'0 0.0
2020-Jan-10 08:00N 63°07' E 007°44'0 0.0
2020-Jan-10 07:30N 63°07' E 007°44'0 0.0
2020-Jan-10 07:00N 63°07' E 007°44'0 0.0
2020-Jan-10 06:30N 63°07' E 007°44'0 0.0
2020-Jan-10 01:30N 63°07' E 007°44'0 0.0
2020-Jan-10 01:00N 63°07' E 007°44'0 0.0
2020-Jan-09 22:30N 63°07' E 007°44'0 0.0
2020-Jan-09 19:00N 63°07' E 007°44'9 5.7
2020-Jan-09 17:27N 63°04' E 007°25'17 5.9
2020-Jan-09 14:30N 62°53' E 006°55'13 2.6
2020-Jan-09 09:30N 62°42' E 006°39'  

Dump ship's entire track history